sensor_id;sensor_type;location;lat;lon;timestamp;temperature;humidity
15617;DHT22;7908;51.688;7.130;2023-09-18T00:01:52;17.90;99.90
15617;DHT22;7908;51.688;7.130;2023-09-18T00:04:22;17.80;99.90
15617;DHT22;7908;51.688;7.130;2023-09-18T00:06:51;17.80;99.90
15617;DHT22;7908;51.688;7.130;2023-09-18T00:09:21;17.80;99.90
15617;DHT22;7908;51.688;7.130;2023-09-18T00:11:49;17.80;99.90
15617;DHT22;7908;51.688;7.130;2023-09-18T00:14:19;17.80;99.90
15617;DHT22;7908;51.688;7.130;2023-09-18T00:16:48;17.80;99.90
15617;DHT22;7908;51.688;7.130;2023-09-18T00:19:26;17.80;99.90
15617;DHT22;7908;51.688;7.130;2023-09-18T00:21:55;17.80;99.90
15617;DHT22;7908;51.688;7.130;2023-09-18T00:24:28;17.80;99.90
15617;DHT22;7908;51.688;7.130;2023-09-18T00:26:56;17.80;99.90
15617;DHT22;7908;51.688;7.130;2023-09-18T00:29:24;17.80;99.90
15617;DHT22;7908;51.688;7.130;2023-09-18T00:31:53;17.70;99.90
15617;DHT22;7908;51.688;7.130;2023-09-18T00:34:22;17.70;99.90
15617;DHT22;7908;51.688;7.130;2023-09-18T00:36:52;17.70;99.90
15617;DHT22;7908;51.688;7.130;2023-09-18T00:39:20;17.70;99.90
15617;DHT22;7908;51.688;7.130;2023-09-18T00:41:49;17.70;99.90
15617;DHT22;7908;51.688;7.130;2023-09-18T00:44:21;17.70;99.90
15617;DHT22;7908;51.688;7.130;2023-09-18T00:46:50;17.60;99.90
15617;DHT22;7908;51.688;7.130;2023-09-18T00:49:19;17.60;99.90
15617;DHT22;7908;51.688;7.130;2023-09-18T00:51:48;17.60;99.90
15617;DHT22;7908;51.688;7.130;2023-09-18T00:54:20;17.60;99.90
15617;DHT22;7908;51.688;7.130;2023-09-18T00:56:48;17.60;99.90
15617;DHT22;7908;51.688;7.130;2023-09-18T00:59:21;17.70;99.90
15617;DHT22;7908;51.688;7.130;2023-09-18T01:01:50;17.70;99.90
15617;DHT22;7908;51.688;7.130;2023-09-18T01:04:19;17.70;99.90
15617;DHT22;7908;51.688;7.130;2023-09-18T01:06:48;17.70;99.90
15617;DHT22;7908;51.688;7.130;2023-09-18T01:09:19;17.70;99.90
15617;DHT22;7908;51.688;7.130;2023-09-18T01:11:53;17.70;99.90
15617;DHT22;7908;51.688;7.130;2023-09-18T01:14:29;17.70;99.90
15617;DHT22;7908;51.688;7.130;2023-09-18T01:17:00;17.80;99.90
15617;DHT22;7908;51.688;7.130;2023-09-18T01:19:39;17.80;99.90
15617;DHT22;7908;51.688;7.130;2023-09-18T01:22:09;17.80;99.90
15617;DHT22;7908;51.688;7.130;2023-09-18T01:24:39;17.80;99.90
15617;DHT22;7908;51.688;7.130;2023-09-18T01:27:10;17.80;99.90
15617;DHT22;7908;51.688;7.130;2023-09-18T01:29:39;17.80;99.90
15617;DHT22;7908;51.688;7.130;2023-09-18T01:32:08;17.80;99.90
15617;DHT22;7908;51.688;7.130;2023-09-18T01:34:39;17.80;99.90
15617;DHT22;7908;51.688;7.130;2023-09-18T01:37:09;17.80;99.90
15617;DHT22;7908;51.688;7.130;2023-09-18T01:39:41;17.80;99.90
15617;DHT22;7908;51.688;7.130;2023-09-18T01:42:10;17.80;99.90
15617;DHT22;7908;51.688;7.130;2023-09-18T01:44:39;17.80;99.90
15617;DHT22;7908;51.688;7.130;2023-09-18T01:47:12;17.80;99.90
15617;DHT22;7908;51.688;7.130;2023-09-18T01:49:41;17.80;99.90
15617;DHT22;7908;51.688;7.130;2023-09-18T01:52:10;17.80;99.90
15617;DHT22;7908;51.688;7.130;2023-09-18T01:54:42;17.80;99.90
15617;DHT22;7908;51.688;7.130;2023-09-18T01:57:10;17.90;99.90
15617;DHT22;7908;51.688;7.130;2023-09-18T01:59:39;17.90;99.90
15617;DHT22;7908;51.688;7.130;2023-09-18T02:02:10;17.90;99.90
15617;DHT22;7908;51.688;7.130;2023-09-18T02:04:50;17.90;99.90
15617;DHT22;7908;51.688;7.130;2023-09-18T02:07:33;17.90;99.90
15617;DHT22;7908;51.688;7.130;2023-09-18T02:10:05;17.90;99.90
15617;DHT22;7908;51.688;7.130;2023-09-18T02:12:34;17.90;99.90
15617;DHT22;7908;51.688;7.130;2023-09-18T02:15:03;17.90;99.90
15617;DHT22;7908;51.688;7.130;2023-09-18T02:17:34;18.00;99.90
15617;DHT22;7908;51.688;7.130;2023-09-18T02:20:04;18.00;99.90
15617;DHT22;7908;51.688;7.130;2023-09-18T02:22:39;18.00;99.90
15617;DHT22;7908;51.688;7.130;2023-09-18T02:25:09;18.00;99.90
15617;DHT22;7908;51.688;7.130;2023-09-18T02:27:38;18.00;99.90
15617;DHT22;7908;51.688;7.130;2023-09-18T02:30:07;18.00;99.90
15617;DHT22;7908;51.688;7.130;2023-09-18T02:32:37;18.00;99.90
15617;DHT22;7908;51.688;7.130;2023-09-18T02:35:06;18.10;99.90
15617;DHT22;7908;51.688;7.130;2023-09-18T02:37:35;18.10;99.90
15617;DHT22;7908;51.688;7.130;2023-09-18T02:40:05;18.10;99.90
15617;DHT22;7908;51.688;7.130;2023-09-18T02:42:36;18.10;99.90
15617;DHT22;7908;51.688;7.130;2023-09-18T02:45:05;18.10;99.90
15617;DHT22;7908;51.688;7.130;2023-09-18T02:47:35;18.10;99.90
15617;DHT22;7908;51.688;7.130;2023-09-18T02:50:05;18.10;99.90
15617;DHT22;7908;51.688;7.130;2023-09-18T02:52:34;18.10;99.90
15617;DHT22;7908;51.688;7.130;2023-09-18T02:55:04;18.10;99.90
15617;DHT22;7908;51.688;7.130;2023-09-18T02:57:33;18.10;99.90
15617;DHT22;7908;51.688;7.130;2023-09-18T03:00:03;18.10;99.90
15617;DHT22;7908;51.688;7.130;2023-09-18T03:02:32;18.10;99.90
15617;DHT22;7908;51.688;7.130;2023-09-18T03:05:02;18.10;99.90
15617;DHT22;7908;51.688;7.130;2023-09-18T03:07:30;18.00;99.90
15617;DHT22;7908;51.688;7.130;2023-09-18T03:09:59;18.10;99.90
15617;DHT22;7908;51.688;7.130;2023-09-18T03:12:27;18.10;99.90
15617;DHT22;7908;51.688;7.130;2023-09-18T03:14:56;18.00;99.90
15617;DHT22;7908;51.688;7.130;2023-09-18T03:17:26;18.10;99.90
15617;DHT22;7908;51.688;7.130;2023-09-18T03:19:55;18.10;99.90
15617;DHT22;7908;51.688;7.130;2023-09-18T03:22:23;18.10;99.90
15617;DHT22;7908;51.688;7.130;2023-09-18T03:24:51;18.10;99.90
15617;DHT22;7908;51.688;7.130;2023-09-18T03:27:20;18.10;99.90
15617;DHT22;7908;51.688;7.130;2023-09-18T03:29:49;18.10;99.90
15617;DHT22;7908;51.688;7.130;2023-09-18T03:32:17;18.10;99.90
15617;DHT22;7908;51.688;7.130;2023-09-18T03:34:50;18.10;99.90
15617;DHT22;7908;51.688;7.130;2023-09-18T03:37:19;18.20;99.90
15617;DHT22;7908;51.688;7.130;2023-09-18T03:39:48;18.20;99.90
15617;DHT22;7908;51.688;7.130;2023-09-18T03:42:16;18.20;99.90
15617;DHT22;7908;51.688;7.130;2023-09-18T03:44:45;18.20;99.90
15617;DHT22;7908;51.688;7.130;2023-09-18T03:47:13;18.20;99.90
15617;DHT22;7908;51.688;7.130;2023-09-18T03:49:42;18.20;99.90
15617;DHT22;7908;51.688;7.130;2023-09-18T03:52:12;18.20;99.90
15617;DHT22;7908;51.688;7.130;2023-09-18T03:54:40;18.20;99.90
15617;DHT22;7908;51.688;7.130;2023-09-18T03:57:09;18.20;99.90
15617;DHT22;7908;51.688;7.130;2023-09-18T03:59:37;18.20;99.90
15617;DHT22;7908;51.688;7.130;2023-09-18T04:02:06;18.30;99.90
15617;DHT22;7908;51.688;7.130;2023-09-18T04:04:35;18.30;99.90
15617;DHT22;7908;51.688;7.130;2023-09-18T04:07:05;18.40;99.90
15617;DHT22;7908;51.688;7.130;2023-09-18T04:09:35;18.40;99.90
15617;DHT22;7908;51.688;7.130;2023-09-18T04:12:05;18.50;99.90
15617;DHT22;7908;51.688;7.130;2023-09-18T04:14:34;18.50;99.90
15617;DHT22;7908;51.688;7.130;2023-09-18T04:17:04;18.60;99.90
15617;DHT22;7908;51.688;7.130;2023-09-18T04:19:33;18.60;99.90
15617;DHT22;7908;51.688;7.130;2023-09-18T04:22:01;18.70;99.90
15617;DHT22;7908;51.688;7.130;2023-09-18T04:24:30;18.70;99.90
15617;DHT22;7908;51.688;7.130;2023-09-18T04:27:00;18.80;99.90
15617;DHT22;7908;51.688;7.130;2023-09-18T04:29:29;18.80;99.90
15617;DHT22;7908;51.688;7.130;2023-09-18T04:31:58;18.80;99.90
15617;DHT22;7908;51.688;7.130;2023-09-18T04:34:26;18.80;99.90
15617;DHT22;7908;51.688;7.130;2023-09-18T04:36:55;18.80;99.90
15617;DHT22;7908;51.688;7.130;2023-09-18T04:39:24;18.80;99.90
15617;DHT22;7908;51.688;7.130;2023-09-18T04:41:53;18.80;99.90
15617;DHT22;7908;51.688;7.130;2023-09-18T04:44:23;18.80;99.90
15617;DHT22;7908;51.688;7.130;2023-09-18T04:46:51;18.80;99.90
15617;DHT22;7908;51.688;7.130;2023-09-18T04:49:20;18.80;99.90
15617;DHT22;7908;51.688;7.130;2023-09-18T04:51:51;18.70;99.90
15617;DHT22;7908;51.688;7.130;2023-09-18T04:54:19;18.80;99.90
15617;DHT22;7908;51.688;7.130;2023-09-18T04:56:48;18.80;99.90
15617;DHT22;7908;51.688;7.130;2023-09-18T04:59:16;18.80;99.90
15617;DHT22;7908;51.688;7.130;2023-09-18T05:01:46;18.90;99.90
15617;DHT22;7908;51.688;7.130;2023-09-18T05:04:15;18.90;99.90
15617;DHT22;7908;51.688;7.130;2023-09-18T05:06:46;19.00;99.90
15617;DHT22;7908;51.688;7.130;2023-09-18T05:09:15;19.10;99.90
15617;DHT22;7908;51.688;7.130;2023-09-18T05:11:46;19.10;99.90
15617;DHT22;7908;51.688;7.130;2023-09-18T05:14:16;19.20;99.90
15617;DHT22;7908;51.688;7.130;2023-09-18T05:16:46;19.20;99.90
15617;DHT22;7908;51.688;7.130;2023-09-18T05:19:15;19.30;99.90
15617;DHT22;7908;51.688;7.130;2023-09-18T05:21:43;19.30;99.90
15617;DHT22;7908;51.688;7.130;2023-09-18T05:24:12;19.40;99.90
15617;DHT22;7908;51.688;7.130;2023-09-18T05:26:40;19.40;99.90
15617;DHT22;7908;51.688;7.130;2023-09-18T05:29:09;19.50;99.90
15617;DHT22;7908;51.688;7.130;2023-09-18T05:31:37;19.50;99.90
15617;DHT22;7908;51.688;7.130;2023-09-18T05:34:08;19.50;99.90
15617;DHT22;7908;51.688;7.130;2023-09-18T05:36:36;19.60;99.90
15617;DHT22;7908;51.688;7.130;2023-09-18T05:39:05;19.60;99.90
15617;DHT22;7908;51.688;7.130;2023-09-18T05:41:37;19.60;99.90
15617;DHT22;7908;51.688;7.130;2023-09-18T05:44:06;19.70;99.90
15617;DHT22;7908;51.688;7.130;2023-09-18T05:46:34;19.60;99.90
15617;DHT22;7908;51.688;7.130;2023-09-18T05:49:04;19.60;99.90
15617;DHT22;7908;51.688;7.130;2023-09-18T05:51:33;19.60;99.90
15617;DHT22;7908;51.688;7.130;2023-09-18T05:54:02;19.60;99.90
15617;DHT22;7908;51.688;7.130;2023-09-18T05:56:33;19.60;99.90
15617;DHT22;7908;51.688;7.130;2023-09-18T05:59:06;19.60;99.90
15617;DHT22;7908;51.688;7.130;2023-09-18T06:01:35;19.70;99.90
15617;DHT22;7908;51.688;7.130;2023-09-18T06:04:05;19.70;99.90
15617;DHT22;7908;51.688;7.130;2023-09-18T06:06:35;19.70;99.90
15617;DHT22;7908;51.688;7.130;2023-09-18T06:09:04;19.80;99.90
15617;DHT22;7908;51.688;7.130;2023-09-18T06:11:32;19.80;99.90
15617;DHT22;7908;51.688;7.130;2023-09-18T06:14:01;19.80;99.90
15617;DHT22;7908;51.688;7.130;2023-09-18T06:16:30;19.90;99.90
15617;DHT22;7908;51.688;7.130;2023-09-18T06:18:59;19.90;99.90
15617;DHT22;7908;51.688;7.130;2023-09-18T06:21:28;19.90;99.90
15617;DHT22;7908;51.688;7.130;2023-09-18T06:24:00;19.90;99.90
15617;DHT22;7908;51.688;7.130;2023-09-18T06:26:29;20.00;99.90
15617;DHT22;7908;51.688;7.130;2023-09-18T06:29:00;20.00;99.90
15617;DHT22;7908;51.688;7.130;2023-09-18T06:31:29;20.00;99.90
15617;DHT22;7908;51.688;7.130;2023-09-18T06:33:58;20.00;99.90
15617;DHT22;7908;51.688;7.130;2023-09-18T06:36:27;20.00;99.90
15617;DHT22;7908;51.688;7.130;2023-09-18T06:38:55;20.10;99.90
15617;DHT22;7908;51.688;7.130;2023-09-18T06:41:25;20.10;99.90
15617;DHT22;7908;51.688;7.130;2023-09-18T06:43:57;20.20;99.90
15617;DHT22;7908;51.688;7.130;2023-09-18T06:46:26;20.20;99.90
15617;DHT22;7908;51.688;7.130;2023-09-18T06:48:55;20.20;99.90
15617;DHT22;7908;51.688;7.130;2023-09-18T06:51:26;20.20;99.90
15617;DHT22;7908;51.688;7.130;2023-09-18T06:54:09;20.30;99.90
15617;DHT22;7908;51.688;7.130;2023-09-18T06:56:39;20.30;99.90
15617;DHT22;7908;51.688;7.130;2023-09-18T06:59:09;20.30;99.90
15617;DHT22;7908;51.688;7.130;2023-09-18T07:01:38;20.30;99.90
15617;DHT22;7908;51.688;7.130;2023-09-18T07:04:08;20.40;99.90
15617;DHT22;7908;51.688;7.130;2023-09-18T07:06:37;20.40;99.90
15617;DHT22;7908;51.688;7.130;2023-09-18T07:09:06;20.50;99.90
15617;DHT22;7908;51.688;7.130;2023-09-18T07:11:35;20.50;99.90
15617;DHT22;7908;51.688;7.130;2023-09-18T07:14:06;20.50;99.90
15617;DHT22;7908;51.688;7.130;2023-09-18T07:16:35;20.60;99.90
15617;DHT22;7908;51.688;7.130;2023-09-18T07:19:04;20.60;99.90
15617;DHT22;7908;51.688;7.130;2023-09-18T07:21:33;20.60;99.90
15617;DHT22;7908;51.688;7.130;2023-09-18T07:24:03;20.60;99.90
15617;DHT22;7908;51.688;7.130;2023-09-18T07:26:32;20.60;99.90
15617;DHT22;7908;51.688;7.130;2023-09-18T07:29:01;20.70;99.90
15617;DHT22;7908;51.688;7.130;2023-09-18T07:31:32;20.70;99.90
15617;DHT22;7908;51.688;7.130;2023-09-18T07:34:02;20.80;99.90
15617;DHT22;7908;51.688;7.130;2023-09-18T07:36:32;20.80;99.90
15617;DHT22;7908;51.688;7.130;2023-09-18T07:39:05;20.90;99.90
15617;DHT22;7908;51.688;7.130;2023-09-18T07:41:35;21.00;99.90
15617;DHT22;7908;51.688;7.130;2023-09-18T07:44:04;21.10;99.90
15617;DHT22;7908;51.688;7.130;2023-09-18T07:46:37;21.10;99.90
15617;DHT22;7908;51.688;7.130;2023-09-18T07:49:05;21.20;99.90
15617;DHT22;7908;51.688;7.130;2023-09-18T07:51:34;21.20;99.90
15617;DHT22;7908;51.688;7.130;2023-09-18T07:54:03;21.20;99.90
15617;DHT22;7908;51.688;7.130;2023-09-18T07:56:32;21.20;99.90
15617;DHT22;7908;51.688;7.130;2023-09-18T07:59:05;21.20;99.90
15617;DHT22;7908;51.688;7.130;2023-09-18T08:01:38;21.20;99.90
15617;DHT22;7908;51.688;7.130;2023-09-18T08:04:07;21.20;99.90
15617;DHT22;7908;51.688;7.130;2023-09-18T08:06:36;21.20;99.90
15617;DHT22;7908;51.688;7.130;2023-09-18T08:09:06;21.10;99.90
15617;DHT22;7908;51.688;7.130;2023-09-18T08:11:36;21.10;99.90
15617;DHT22;7908;51.688;7.130;2023-09-18T08:14:09;21.10;99.90
15617;DHT22;7908;51.688;7.130;2023-09-18T08:16:40;21.00;99.90
15617;DHT22;7908;51.688;7.130;2023-09-18T08:19:09;21.00;99.90
15617;DHT22;7908;51.688;7.130;2023-09-18T08:21:40;21.10;99.90
15617;DHT22;7908;51.688;7.130;2023-09-18T08:24:12;21.00;99.90
15617;DHT22;7908;51.688;7.130;2023-09-18T08:26:48;21.00;99.90
15617;DHT22;7908;51.688;7.130;2023-09-18T08:29:18;21.00;99.90
15617;DHT22;7908;51.688;7.130;2023-09-18T08:31:48;21.00;99.90
15617;DHT22;7908;51.688;7.130;2023-09-18T08:34:22;21.10;99.90
15617;DHT22;7908;51.688;7.130;2023-09-18T08:36:54;21.10;99.90
15617;DHT22;7908;51.688;7.130;2023-09-18T08:39:23;21.10;99.90
15617;DHT22;7908;51.688;7.130;2023-09-18T08:41:55;21.10;99.90
15617;DHT22;7908;51.688;7.130;2023-09-18T08:44:32;21.10;99.90
15617;DHT22;7908;51.688;7.130;2023-09-18T08:47:04;21.10;99.90
15617;DHT22;7908;51.688;7.130;2023-09-18T08:49:38;21.10;99.90
15617;DHT22;7908;51.688;7.130;2023-09-18T08:52:08;21.20;99.90
15617;DHT22;7908;51.688;7.130;2023-09-18T08:54:37;21.20;99.90
15617;DHT22;7908;51.688;7.130;2023-09-18T08:57:06;21.20;99.90
15617;DHT22;7908;51.688;7.130;2023-09-18T08:59:39;21.30;99.90
15617;DHT22;7908;51.688;7.130;2023-09-18T09:02:11;21.30;99.90
15617;DHT22;7908;51.688;7.130;2023-09-18T09:04:42;21.40;99.90
15617;DHT22;7908;51.688;7.130;2023-09-18T09:07:15;21.50;99.90
15617;DHT22;7908;51.688;7.130;2023-09-18T09:09:48;21.50;99.90
15617;DHT22;7908;51.688;7.130;2023-09-18T09:15:04;21.50;99.90
15617;DHT22;7908;51.688;7.130;2023-09-18T09:17:37;21.50;99.90
15617;DHT22;7908;51.688;7.130;2023-09-18T09:20:15;21.50;99.90
15617;DHT22;7908;51.688;7.130;2023-09-18T09:22:47;21.50;99.90
15617;DHT22;7908;51.688;7.130;2023-09-18T09:25:24;21.60;99.90
15617;DHT22;7908;51.688;7.130;2023-09-18T09:27:58;21.60;99.90
15617;DHT22;7908;51.688;7.130;2023-09-18T09:30:28;21.50;99.90
15617;DHT22;7908;51.688;7.130;2023-09-18T09:32:59;21.70;99.90
15617;DHT22;7908;51.688;7.130;2023-09-18T09:35:33;21.80;99.90
15617;DHT22;7908;51.688;7.130;2023-09-18T09:38:08;22.00;99.90
15617;DHT22;7908;51.688;7.130;2023-09-18T09:40:43;22.10;99.90
15617;DHT22;7908;51.688;7.130;2023-09-18T09:43:15;22.10;99.90
15617;DHT22;7908;51.688;7.130;2023-09-18T09:45:49;22.10;99.90
15617;DHT22;7908;51.688;7.130;2023-09-18T09:48:27;22.10;99.90
15617;DHT22;7908;51.688;7.130;2023-09-18T09:50:59;22.10;99.90
15617;DHT22;7908;51.688;7.130;2023-09-18T09:53:49;22.00;99.90
15617;DHT22;7908;51.688;7.130;2023-09-18T09:56:23;22.00;99.90
15617;DHT22;7908;51.688;7.130;2023-09-18T09:59:12;21.90;99.90
15617;DHT22;7908;51.688;7.130;2023-09-18T10:01:44;21.90;99.90
15617;DHT22;7908;51.688;7.130;2023-09-18T10:04:19;21.90;99.90
15617;DHT22;7908;51.688;7.130;2023-09-18T10:07:06;21.90;99.90
15617;DHT22;7908;51.688;7.130;2023-09-18T10:09:44;22.00;99.90
15617;DHT22;7908;51.688;7.130;2023-09-18T10:12:20;22.10;99.90
15617;DHT22;7908;51.688;7.130;2023-09-18T10:14:57;22.20;99.90
15617;DHT22;7908;51.688;7.130;2023-09-18T10:17:29;22.30;99.90
15617;DHT22;7908;51.688;7.130;2023-09-18T10:20:13;22.40;99.90
15617;DHT22;7908;51.688;7.130;2023-09-18T10:23:02;22.40;99.90
15617;DHT22;7908;51.688;7.130;2023-09-18T10:25:37;22.30;99.90
15617;DHT22;7908;51.688;7.130;2023-09-18T10:28:12;22.30;99.90
15617;DHT22;7908;51.688;7.130;2023-09-18T10:30:47;22.30;99.90
15617;DHT22;7908;51.688;7.130;2023-09-18T10:33:18;22.30;99.90
15617;DHT22;7908;51.688;7.130;2023-09-18T10:35:58;22.40;99.90
15617;DHT22;7908;51.688;7.130;2023-09-18T10:38:32;22.50;99.90
15617;DHT22;7908;51.688;7.130;2023-09-18T10:41:12;22.50;99.90
15617;DHT22;7908;51.688;7.130;2023-09-18T10:43:45;22.50;99.90
15617;DHT22;7908;51.688;7.130;2023-09-18T10:46:22;22.60;99.90
15617;DHT22;7908;51.688;7.130;2023-09-18T10:48:59;22.80;99.90
15617;DHT22;7908;51.688;7.130;2023-09-18T10:51:37;22.90;99.90
15617;DHT22;7908;51.688;7.130;2023-09-18T10:54:20;23.00;99.90
15617;DHT22;7908;51.688;7.130;2023-09-18T10:57:06;23.20;99.90
15617;DHT22;7908;51.688;7.130;2023-09-18T10:59:43;23.20;99.90
15617;DHT22;7908;51.688;7.130;2023-09-18T11:02:17;23.20;99.90
15617;DHT22;7908;51.688;7.130;2023-09-18T11:04:53;23.20;99.90
15617;DHT22;7908;51.688;7.130;2023-09-18T11:07:26;23.20;99.90
15617;DHT22;7908;51.688;7.130;2023-09-18T11:09:57;23.20;99.90
15617;DHT22;7908;51.688;7.130;2023-09-18T11:12:44;23.20;99.90
15617;DHT22;7908;51.688;7.130;2023-09-18T11:15:26;23.20;99.90
15617;DHT22;7908;51.688;7.130;2023-09-18T11:18:01;23.30;99.90
15617;DHT22;7908;51.688;7.130;2023-09-18T11:20:42;23.30;99.90
15617;DHT22;7908;51.688;7.130;2023-09-18T11:23:37;23.30;99.90
15617;DHT22;7908;51.688;7.130;2023-09-18T11:26:11;23.40;99.90
15617;DHT22;7908;51.688;7.130;2023-09-18T11:28:41;23.40;99.90
15617;DHT22;7908;51.688;7.130;2023-09-18T11:31:14;23.40;99.90
15617;DHT22;7908;51.688;7.130;2023-09-18T11:33:45;23.40;99.90
15617;DHT22;7908;51.688;7.130;2023-09-18T11:36:29;23.40;99.90
15617;DHT22;7908;51.688;7.130;2023-09-18T11:39:02;23.40;99.90
15617;DHT22;7908;51.688;7.130;2023-09-18T11:41:34;23.40;99.90
15617;DHT22;7908;51.688;7.130;2023-09-18T11:44:34;23.40;99.90
15617;DHT22;7908;51.688;7.130;2023-09-18T11:47:10;23.50;99.90
15617;DHT22;7908;51.688;7.130;2023-09-18T11:49:53;23.50;99.90
15617;DHT22;7908;51.688;7.130;2023-09-18T11:52:27;23.50;99.90
15617;DHT22;7908;51.688;7.130;2023-09-18T11:55:01;23.70;99.90
15617;DHT22;7908;51.688;7.130;2023-09-18T11:57:35;23.80;99.90
15617;DHT22;7908;51.688;7.130;2023-09-18T12:00:19;23.90;99.90
15617;DHT22;7908;51.688;7.130;2023-09-18T12:02:54;23.90;99.90
15617;DHT22;7908;51.688;7.130;2023-09-18T12:05:28;23.90;99.90
15617;DHT22;7908;51.688;7.130;2023-09-18T12:07:58;23.80;99.90
15617;DHT22;7908;51.688;7.130;2023-09-18T12:10:30;23.70;99.90
15617;DHT22;7908;51.688;7.130;2023-09-18T12:13:01;23.70;99.90
15617;DHT22;7908;51.688;7.130;2023-09-18T12:15:37;23.60;99.90
15617;DHT22;7908;51.688;7.130;2023-09-18T12:18:10;23.50;99.90
15617;DHT22;7908;51.688;7.130;2023-09-18T12:20:47;23.50;99.90
15617;DHT22;7908;51.688;7.130;2023-09-18T12:23:17;23.40;99.90
15617;DHT22;7908;51.688;7.130;2023-09-18T12:25:50;23.40;99.90
15617;DHT22;7908;51.688;7.130;2023-09-18T12:28:26;23.30;99.90
15617;DHT22;7908;51.688;7.130;2023-09-18T12:31:05;23.30;99.90
15617;DHT22;7908;51.688;7.130;2023-09-18T12:33:44;23.30;99.90
15617;DHT22;7908;51.688;7.130;2023-09-18T12:36:19;23.30;99.90
15617;DHT22;7908;51.688;7.130;2023-09-18T12:38:56;23.40;99.90
15617;DHT22;7908;51.688;7.130;2023-09-18T12:41:27;23.40;99.90
15617;DHT22;7908;51.688;7.130;2023-09-18T12:43:59;23.30;99.90
15617;DHT22;7908;51.688;7.130;2023-09-18T12:46:32;23.30;99.90
15617;DHT22;7908;51.688;7.130;2023-09-18T12:49:17;23.40;99.90
15617;DHT22;7908;51.688;7.130;2023-09-18T12:51:58;23.40;99.90
15617;DHT22;7908;51.688;7.130;2023-09-18T12:54:42;23.50;99.90
15617;DHT22;7908;51.688;7.130;2023-09-18T12:57:18;23.50;99.90
15617;DHT22;7908;51.688;7.130;2023-09-18T12:59:54;23.40;99.90
15617;DHT22;7908;51.688;7.130;2023-09-18T13:02:28;23.40;99.90
15617;DHT22;7908;51.688;7.130;2023-09-18T13:04:58;23.40;99.90
15617;DHT22;7908;51.688;7.130;2023-09-18T13:07:45;23.50;99.90
15617;DHT22;7908;51.688;7.130;2023-09-18T13:10:22;23.50;99.90
15617;DHT22;7908;51.688;7.130;2023-09-18T13:12:57;23.60;99.90
15617;DHT22;7908;51.688;7.130;2023-09-18T13:15:32;23.60;99.90
15617;DHT22;7908;51.688;7.130;2023-09-18T13:18:09;23.70;99.90
15617;DHT22;7908;51.688;7.130;2023-09-18T13:20:45;23.70;99.90
15617;DHT22;7908;51.688;7.130;2023-09-18T13:23:23;23.70;99.90
15617;DHT22;7908;51.688;7.130;2023-09-18T13:26:24;23.70;99.90
15617;DHT22;7908;51.688;7.130;2023-09-18T13:28:59;23.70;99.90
15617;DHT22;7908;51.688;7.130;2023-09-18T13:31:31;23.80;99.90
15617;DHT22;7908;51.688;7.130;2023-09-18T13:34:01;23.90;99.90
15617;DHT22;7908;51.688;7.130;2023-09-18T13:36:34;23.90;99.90
15617;DHT22;7908;51.688;7.130;2023-09-18T13:39:06;23.90;99.90
15617;DHT22;7908;51.688;7.130;2023-09-18T13:41:40;23.90;99.90
15617;DHT22;7908;51.688;7.130;2023-09-18T13:44:17;23.90;99.90
15617;DHT22;7908;51.688;7.130;2023-09-18T13:46:48;23.90;99.90
15617;DHT22;7908;51.688;7.130;2023-09-18T13:49:21;23.90;99.90
15617;DHT22;7908;51.688;7.130;2023-09-18T13:51:54;24.00;99.90
15617;DHT22;7908;51.688;7.130;2023-09-18T13:54:28;24.10;99.90
15617;DHT22;7908;51.688;7.130;2023-09-18T13:57:01;24.30;99.90
15617;DHT22;7908;51.688;7.130;2023-09-18T13:59:34;24.30;99.90
15617;DHT22;7908;51.688;7.130;2023-09-18T14:02:09;24.30;99.90
15617;DHT22;7908;51.688;7.130;2023-09-18T14:04:42;24.20;99.90
15617;DHT22;7908;51.688;7.130;2023-09-18T14:07:12;24.10;99.90
15617;DHT22;7908;51.688;7.130;2023-09-18T14:09:44;24.00;99.90
15617;DHT22;7908;51.688;7.130;2023-09-18T14:12:15;23.90;99.90
15617;DHT22;7908;51.688;7.130;2023-09-18T14:14:48;23.90;99.90
15617;DHT22;7908;51.688;7.130;2023-09-18T14:17:20;24.00;99.90
15617;DHT22;7908;51.688;7.130;2023-09-18T14:19:49;24.00;99.90
15617;DHT22;7908;51.688;7.130;2023-09-18T14:22:21;24.10;99.90
15617;DHT22;7908;51.688;7.130;2023-09-18T14:24:54;24.10;99.90
15617;DHT22;7908;51.688;7.130;2023-09-18T14:27:28;24.20;99.90
15617;DHT22;7908;51.688;7.130;2023-09-18T14:30:00;24.20;99.90
15617;DHT22;7908;51.688;7.130;2023-09-18T14:32:39;24.20;99.90
15617;DHT22;7908;51.688;7.130;2023-09-18T14:35:10;24.20;99.90
15617;DHT22;7908;51.688;7.130;2023-09-18T14:37:43;24.10;99.90
15617;DHT22;7908;51.688;7.130;2023-09-18T14:40:21;24.10;99.90
15617;DHT22;7908;51.688;7.130;2023-09-18T14:42:55;24.00;99.90
15617;DHT22;7908;51.688;7.130;2023-09-18T14:45:27;24.00;99.90
15617;DHT22;7908;51.688;7.130;2023-09-18T14:48:00;23.90;99.90
15617;DHT22;7908;51.688;7.130;2023-09-18T14:50:30;23.90;99.90
15617;DHT22;7908;51.688;7.130;2023-09-18T14:53:00;23.80;99.90
15617;DHT22;7908;51.688;7.130;2023-09-18T14:55:32;23.80;99.90
15617;DHT22;7908;51.688;7.130;2023-09-18T14:58:08;23.80;99.90
15617;DHT22;7908;51.688;7.130;2023-09-18T15:00:53;23.80;99.90
15617;DHT22;7908;51.688;7.130;2023-09-18T15:03:26;23.80;99.90
15617;DHT22;7908;51.688;7.130;2023-09-18T15:05:55;23.80;99.90
15617;DHT22;7908;51.688;7.130;2023-09-18T15:08:25;23.70;99.90
15617;DHT22;7908;51.688;7.130;2023-09-18T15:10:54;23.80;99.90
15617;DHT22;7908;51.688;7.130;2023-09-18T15:13:25;23.80;99.90
15617;DHT22;7908;51.688;7.130;2023-09-18T15:15:58;23.70;99.90
15617;DHT22;7908;51.688;7.130;2023-09-18T15:18:34;23.70;99.90
15617;DHT22;7908;51.688;7.130;2023-09-18T15:21:07;23.60;99.90
15617;DHT22;7908;51.688;7.130;2023-09-18T15:23:45;23.60;99.90
15617;DHT22;7908;51.688;7.130;2023-09-18T15:26:21;23.50;99.90
15617;DHT22;7908;51.688;7.130;2023-09-18T15:28:55;23.50;99.90
15617;DHT22;7908;51.688;7.130;2023-09-18T15:31:29;23.50;99.90
15617;DHT22;7908;51.688;7.130;2023-09-18T15:34:05;23.50;99.90
15617;DHT22;7908;51.688;7.130;2023-09-18T15:36:34;23.50;99.90
15617;DHT22;7908;51.688;7.130;2023-09-18T15:39:05;23.40;99.90
15617;DHT22;7908;51.688;7.130;2023-09-18T15:41:35;23.40;99.90
15617;DHT22;7908;51.688;7.130;2023-09-18T15:44:06;23.40;99.90
15617;DHT22;7908;51.688;7.130;2023-09-18T15:46:40;23.30;99.90
15617;DHT22;7908;51.688;7.130;2023-09-18T15:49:12;23.20;99.90
15617;DHT22;7908;51.688;7.130;2023-09-18T15:51:41;23.10;99.90
15617;DHT22;7908;51.688;7.130;2023-09-18T15:54:11;23.10;99.90
15617;DHT22;7908;51.688;7.130;2023-09-18T15:56:41;23.10;99.90
15617;DHT22;7908;51.688;7.130;2023-09-18T15:59:13;23.10;99.90
15617;DHT22;7908;51.688;7.130;2023-09-18T16:01:48;23.10;99.90
15617;DHT22;7908;51.688;7.130;2023-09-18T16:04:19;23.20;99.90
15617;DHT22;7908;51.688;7.130;2023-09-18T16:06:51;23.20;99.90
15617;DHT22;7908;51.688;7.130;2023-09-18T16:09:25;23.20;99.90
15617;DHT22;7908;51.688;7.130;2023-09-18T16:12:07;23.20;99.90
15617;DHT22;7908;51.688;7.130;2023-09-18T16:14:37;23.10;99.90
15617;DHT22;7908;51.688;7.130;2023-09-18T16:17:12;23.10;99.90
15617;DHT22;7908;51.688;7.130;2023-09-18T16:19:46;23.00;99.90